createdAt,value
2018-01-27T00:00:39.371Z,16.00
2018-01-27T00:03:07.812Z,14.97
2018-01-27T00:05:35.304Z,15.67
2018-01-27T00:08:02.772Z,14.60
2018-01-27T00:10:31.184Z,14.93
2018-01-27T00:12:59.434Z,15.30
2018-01-27T00:15:26.901Z,15.10
2018-01-27T00:17:54.468Z,17.37
2018-01-27T00:20:22.719Z,16.20
2018-01-27T00:22:52.967Z,16.50
2018-01-27T00:25:21.204Z,17.20
2018-01-27T00:27:49.601Z,17.23
2018-01-27T00:30:17.073Z,16.03
2018-01-27T00:32:44.556Z,16.17
2018-01-27T00:35:12.029Z,16.90
2018-01-27T00:37:39.492Z,15.20
2018-01-27T00:40:07.151Z,16.73
2018-01-27T00:42:34.662Z,18.77
2018-01-27T00:45:02.187Z,19.90
2018-01-27T00:47:29.664Z,18.17
2018-01-27T00:49:57.145Z,18.20
2018-01-27T00:52:25.402Z,17.20
2018-01-27T00:54:53.737Z,18.87
2018-01-27T00:57:21.324Z,17.47
2018-01-27T00:59:48.813Z,18.20
2018-01-27T01:02:17.034Z,19.23
2018-01-27T01:04:44.787Z,19.43
2018-01-27T01:07:13.930Z,21.00
2018-01-27T01:09:42.913Z,19.77
2018-01-27T01:12:10.380Z,19.80
2018-01-27T01:14:38.718Z,21.10
2018-01-27T01:17:06.188Z,18.30
2018-01-27T01:19:35.611Z,20.87
2018-01-27T01:22:04.156Z,17.30
2018-01-27T01:24:31.649Z,17.67
2018-01-27T01:26:59.215Z,17.73
2018-01-27T01:29:26.676Z,17.30
2018-01-27T01:31:55.157Z,19.10
2018-01-27T01:34:24.841Z,16.13
2018-01-27T01:36:52.402Z,17.83
2018-01-27T01:39:20.062Z,17.30
2018-01-27T01:41:47.550Z,16.17
2018-01-27T01:44:28.575Z,18.20
2018-01-27T01:46:56.080Z,17.80
2018-01-27T01:49:24.444Z,18.33
2018-01-27T01:51:51.920Z,16.60
2018-01-27T01:54:20.152Z,16.17
2018-01-27T01:56:47.649Z,16.27
2018-01-27T01:59:15.113Z,16.23
2018-01-27T02:01:43.447Z,16.43
2018-01-27T02:04:10.930Z,15.60
2018-01-27T02:06:38.418Z,15.53
2018-01-27T02:09:06.694Z,16.50
2018-01-27T02:11:34.185Z,15.87
2018-01-27T02:14:01.666Z,15.40
2018-01-27T02:16:29.205Z,16.67
2018-01-27T02:18:57.684Z,16.27
2018-01-27T02:21:25.268Z,16.30
2018-01-27T02:23:52.747Z,17.83
2018-01-27T02:26:21.183Z,16.73
2018-01-27T02:28:48.662Z,16.33
2018-01-27T02:31:16.125Z,15.93
2018-01-27T02:33:43.684Z,15.93
2018-01-27T02:36:11.252Z,15.20
2018-01-27T02:38:38.733Z,17.53
2018-01-27T02:41:06.997Z,18.57
2018-01-27T02:43:35.245Z,17.73
2018-01-27T02:46:04.265Z,18.57
2018-01-27T02:48:32.500Z,19.30
2018-01-27T02:50:59.981Z,18.67
2018-01-27T02:53:28.373Z,19.00
2018-01-27T02:55:57.431Z,17.93
2018-01-27T02:58:25.397Z,19.10
2018-01-27T03:00:52.970Z,19.27
2018-01-27T03:03:20.449Z,18.87
2018-01-27T03:05:49.680Z,20.63
2018-01-27T03:08:17.144Z,19.63
2018-01-27T03:10:44.639Z,20.23
2018-01-27T03:13:12.110Z,18.70
2018-01-27T03:15:39.577Z,18.97
2018-01-27T03:18:07.845Z,20.43
2018-01-27T03:20:35.312Z,18.90
2018-01-27T03:23:03.565Z,19.87
2018-01-27T03:25:31.024Z,19.87
2018-01-27T03:27:59.277Z,20.60
2018-01-27T03:30:27.785Z,18.10
2018-01-27T03:32:56.277Z,22.03
2018-01-27T03:35:25.124Z,20.60
2018-01-27T03:37:52.609Z,21.03
2018-01-27T03:40:20.236Z,21.00
2018-01-27T03:42:47.829Z,19.90
2018-01-27T03:45:15.313Z,21.27
2018-01-27T03:47:43.544Z,21.47
2018-01-27T03:50:11.152Z,21.60
2018-01-27T03:52:39.452Z,23.00
2018-01-27T03:55:06.919Z,25.67
2018-01-27T03:57:34.399Z,25.40
2018-01-27T04:00:01.958Z,25.60
2018-01-27T04:02:29.530Z,25.50
2018-01-27T04:04:58.073Z,27.20
2018-01-27T04:07:26.100Z,27.00
2018-01-27T04:09:54.346Z,29.73
2018-01-27T04:12:21.944Z,27.70
2018-01-27T04:14:50.252Z,27.60
2018-01-27T04:17:18.557Z,26.90
2018-01-27T04:19:46.226Z,29.17
2018-01-27T04:22:14.763Z,28.13
2018-01-27T04:24:42.372Z,30.27
2018-01-27T04:27:10.644Z,29.50
2018-01-27T04:29:38.117Z,29.07
2018-01-27T04:32:05.589Z,27.57
2018-01-27T04:34:34.798Z,28.13
2018-01-27T04:37:03.242Z,27.63
2018-01-27T04:39:30.809Z,28.10
2018-01-27T04:41:58.300Z,27.90
2018-01-27T04:44:25.772Z,27.83
2018-01-27T04:46:53.247Z,27.50
2018-01-27T04:49:20.731Z,30.10
2018-01-27T04:51:49.223Z,31.30
2018-01-27T04:54:16.696Z,29.83
2018-01-27T04:56:44.944Z,30.47
2018-01-27T04:59:12.530Z,28.27
2018-01-27T05:01:40.760Z,26.50
2018-01-27T05:04:08.237Z,28.10
2018-01-27T05:06:36.576Z,26.80
2018-01-27T05:09:04.064Z,26.37
2018-01-27T05:11:32.384Z,26.97
2018-01-27T05:13:59.872Z,29.53
2018-01-27T05:16:27.356Z,28.90
2018-01-27T05:18:54.823Z,27.00
2018-01-27T05:21:22.317Z,28.10
2018-01-27T05:23:49.812Z,26.37
2018-01-27T05:26:17.364Z,29.37
2018-01-27T05:28:44.836Z,30.83
2018-01-27T05:31:12.389Z,34.70
2018-01-27T05:33:39.857Z,32.73
2018-01-27T05:36:07.327Z,30.30
2018-01-27T05:38:34.902Z,32.60
2018-01-27T05:41:03.149Z,31.13
2018-01-27T05:43:30.666Z,32.10
2018-01-27T05:45:58.205Z,35.40
2018-01-27T05:48:27.609Z,34.03
2018-01-27T05:50:55.924Z,34.37
2018-01-27T05:53:23.408Z,32.13
2018-01-27T05:55:52.397Z,34.70
2018-01-27T05:58:21.401Z,31.37
2018-01-27T06:00:50.803Z,34.10
2018-01-27T06:03:18.273Z,35.30
2018-01-27T06:05:47.532Z,35.53
2018-01-27T06:08:15.045Z,33.57
2018-01-27T06:10:42.537Z,34.47
2018-01-27T06:13:10.009Z,33.00
2018-01-27T06:15:38.095Z,37.57
2018-01-27T06:18:07.090Z,33.30
2018-01-27T06:20:35.170Z,35.23
2018-01-27T06:23:02.725Z,36.47
2018-01-27T06:25:30.254Z,32.43
2018-01-27T06:27:58.697Z,35.43
2018-01-27T06:30:26.169Z,36.23
2018-01-27T06:32:54.591Z,32.10
2018-01-27T06:35:22.066Z,34.90
2018-01-27T06:37:49.571Z,32.80
2018-01-27T06:40:17.032Z,33.77
2018-01-27T06:42:44.514Z,33.53
2018-01-27T06:45:12.442Z,34.03
2018-01-27T06:47:40.853Z,35.07
2018-01-27T06:50:09.280Z,33.70
2018-01-27T06:52:37.525Z,33.57
2018-01-27T06:55:05.976Z,33.73
2018-01-27T06:57:33.447Z,30.87
2018-01-27T07:00:01.053Z,30.20
2018-01-27T07:02:28.639Z,31.73
2018-01-27T07:04:56.125Z,32.93
2018-01-27T07:07:23.609Z,29.37
2018-01-27T07:09:51.084Z,31.60
2018-01-27T07:12:18.655Z,32.07
2018-01-27T07:14:46.140Z,30.80
2018-01-27T07:17:13.633Z,31.60
2018-01-27T07:19:41.118Z,31.40
2018-01-27T07:22:09.617Z,30.63
2018-01-27T07:24:37.284Z,33.60
2018-01-27T07:27:05.042Z,34.80
2018-01-27T07:29:32.501Z,32.97
2018-01-27T07:32:01.751Z,31.73
2018-01-27T07:34:29.221Z,34.83
2018-01-27T07:36:56.688Z,32.20
2018-01-27T07:39:25.018Z,32.40
2018-01-27T07:41:52.521Z,34.07
2018-01-27T07:44:21.806Z,31.20
2018-01-27T07:46:49.317Z,34.33
2018-01-27T07:49:16.796Z,32.70
2018-01-27T07:51:44.293Z,34.80
2018-01-27T07:54:12.533Z,32.70
2018-01-27T07:56:39.994Z,36.00
2018-01-27T07:59:07.458Z,37.57
2018-01-27T08:01:35.914Z,34.40
2018-01-27T08:04:04.418Z,35.07
2018-01-27T08:06:31.897Z,36.90
2018-01-27T08:09:00.149Z,37.80
2018-01-27T08:11:27.633Z,36.53
2018-01-27T08:13:55.880Z,34.50
2018-01-27T08:16:24.220Z,37.73
2018-01-27T08:18:51.691Z,36.53
2018-01-27T08:21:19.150Z,38.23
2018-01-27T08:23:46.663Z,37.97
2018-01-27T08:26:14.879Z,37.63
2018-01-27T08:28:42.456Z,34.93
2018-01-27T08:31:09.959Z,36.20
2018-01-27T08:33:38.938Z,35.90
2018-01-27T08:36:07.165Z,36.40
2018-01-27T08:38:34.805Z,34.47
2018-01-27T08:41:02.281Z,36.53
2018-01-27T08:43:30.960Z,37.00
2018-01-27T08:45:58.424Z,35.90
2018-01-27T08:48:25.909Z,34.80
2018-01-27T08:50:54.417Z,36.50
2018-01-27T08:53:22.656Z,35.63
2018-01-27T08:55:50.148Z,36.63
2018-01-27T08:58:18.397Z,37.30
2018-01-27T09:00:46.836Z,38.93
2018-01-27T09:03:14.329Z,36.10
2018-01-27T09:05:41.796Z,38.00
2018-01-27T09:08:09.261Z,39.00
2018-01-27T09:10:36.738Z,37.93
2018-01-27T09:13:04.622Z,38.37
2018-01-27T09:15:32.148Z,39.03
2018-01-27T09:18:00.394Z,37.67
2018-01-27T09:20:27.871Z,38.43
2018-01-27T09:22:56.149Z,38.53
2018-01-27T09:25:23.625Z,39.57
2018-01-27T09:27:51.867Z,35.30
2018-01-27T09:30:20.864Z,38.20
2018-01-27T09:32:48.362Z,38.20
2018-01-27T09:35:16.768Z,38.33
2018-01-27T09:37:44.332Z,37.40
2018-01-27T09:40:11.810Z,36.30
2018-01-27T09:42:39.312Z,36.87
2018-01-27T09:45:07.536Z,37.13
2018-01-27T09:47:35.017Z,36.23
2018-01-27T09:50:02.490Z,38.23
2018-01-27T09:52:30.721Z,35.70
2018-01-27T09:54:58.533Z,35.43
2018-01-27T09:57:26.783Z,36.00
2018-01-27T09:59:55.297Z,37.50
2018-01-27T10:02:23.545Z,33.57
2018-01-27T10:04:52.324Z,33.97
2018-01-27T10:07:19.816Z,35.00
2018-01-27T10:09:47.334Z,34.27
2018-01-27T10:12:16.289Z,33.20
2018-01-27T10:14:44.745Z,33.67
2018-01-27T10:17:12.244Z,33.67
2018-01-27T10:19:39.713Z,33.73
2018-01-27T10:22:07.196Z,31.60
2018-01-27T10:24:35.461Z,32.10
2018-01-27T10:27:03.865Z,29.03
2018-01-27T10:29:31.341Z,31.33
2018-01-27T10:31:58.820Z,29.17
2018-01-27T10:34:26.279Z,29.40
2018-01-27T10:36:54.839Z,29.53
2018-01-27T10:39:22.429Z,28.37
2018-01-27T10:41:50.835Z,30.00
2018-01-27T10:44:18.312Z,29.27
2018-01-27T10:46:45.981Z,29.57
2018-01-27T10:49:13.517Z,27.40
2018-01-27T10:51:41.885Z,30.63
2018-01-27T10:54:09.377Z,27.80
2018-01-27T10:56:36.868Z,27.70
2018-01-27T10:59:04.392Z,28.53
2018-01-27T11:01:31.945Z,28.17
2018-01-27T11:03:59.458Z,24.83
2018-01-27T11:06:27.061Z,24.90
2018-01-27T11:08:55.342Z,21.80
2018-01-27T11:11:22.848Z,22.97
2018-01-27T11:13:50.374Z,23.00
2018-01-27T11:16:17.853Z,23.70
2018-01-27T11:18:45.338Z,23.47
2018-01-27T11:21:12.823Z,19.07
2018-01-27T11:23:41.181Z,19.17
2018-01-27T11:26:08.674Z,19.37
2018-01-27T11:28:36.260Z,20.23
2018-01-27T11:31:03.862Z,19.17
2018-01-27T11:33:31.940Z,18.37
2018-01-27T11:36:00.215Z,19.97
2018-01-27T11:38:28.486Z,18.57
2018-01-27T11:40:56.781Z,18.43
2018-01-27T11:43:24.314Z,20.83
2018-01-27T11:45:52.713Z,18.10
2018-01-27T11:48:21.092Z,18.87
2018-01-27T11:50:50.316Z,19.03
2018-01-27T11:53:19.021Z,19.93
2018-01-27T11:55:46.847Z,16.70
2018-01-27T11:58:14.330Z,17.93
2018-01-27T12:00:41.984Z,16.17
2018-01-27T12:03:10.884Z,18.67
2018-01-27T12:05:38.372Z,18.50
2018-01-27T12:08:08.248Z,17.90
2018-01-27T12:10:36.618Z,16.30
2018-01-27T12:13:05.092Z,17.57
2018-01-27T12:15:32.666Z,18.20
2018-01-27T12:18:00.154Z,19.23
2018-01-27T12:20:27.650Z,18.20
2018-01-27T12:22:55.912Z,17.93
2018-01-27T12:25:24.200Z,19.43
2018-01-27T12:27:53.482Z,18.90
2018-01-27T12:30:20.957Z,16.87
2018-01-27T12:32:49.331Z,17.30
2018-01-27T12:35:18.543Z,18.20
2018-01-27T12:37:46.024Z,16.17
2018-01-27T12:40:13.702Z,17.27
2018-01-27T12:42:41.300Z,16.47
2018-01-27T12:45:09.669Z,14.43
2018-01-27T12:47:37.925Z,16.37
2018-01-27T12:50:06.654Z,15.33
2018-01-27T12:52:35.088Z,15.83
2018-01-27T12:55:03.576Z,15.30
2018-01-27T12:57:31.164Z,15.00
2018-01-27T12:59:58.950Z,14.40
2018-01-27T13:02:28.830Z,16.20
2018-01-27T13:04:57.483Z,16.60
2018-01-27T13:07:25.466Z,12.57
2018-01-27T13:09:59.132Z,14.47
2018-01-27T13:12:26.782Z,14.20
2018-01-27T13:14:54.404Z,13.97
2018-01-27T13:17:23.058Z,14.07
2018-01-27T13:19:50.767Z,14.23
2018-01-27T13:22:19.048Z,15.53
2018-01-27T13:24:46.625Z,15.40
2018-01-27T13:27:14.134Z,14.63
2018-01-27T13:29:41.720Z,14.50
2018-01-27T13:32:10.081Z,15.43
2018-01-27T13:34:38.539Z,14.60
2018-01-27T13:37:06.153Z,14.10
2018-01-27T13:39:33.726Z,12.80
2018-01-27T13:42:02.145Z,11.63
2018-01-27T13:44:29.616Z,11.57
2018-01-27T13:46:57.107Z,12.03
2018-01-27T13:49:25.369Z,11.80
2018-01-27T13:51:54.448Z,13.23
2018-01-27T13:54:21.943Z,12.13
2018-01-27T13:56:49.424Z,11.00
2018-01-27T13:59:17.024Z,10.50
2018-01-27T14:01:44.486Z,9.97
2018-01-27T14:04:12.718Z,10.57
2018-01-27T14:06:40.200Z,10.70
2018-01-27T14:09:07.671Z,10.77
2018-01-27T14:11:36.179Z,10.97
2018-01-27T14:14:04.421Z,10.17
2018-01-27T14:16:33.687Z,10.30
2018-01-27T14:19:01.140Z,10.80
2018-01-27T14:21:28.727Z,9.93
2018-01-27T14:23:56.194Z,10.23
2018-01-27T14:26:24.520Z,11.63
2018-01-27T14:28:52.804Z,10.20
2018-01-27T14:31:20.284Z,10.80
2018-01-27T14:33:48.902Z,10.60
2018-01-27T14:36:17.174Z,11.30
2018-01-27T14:38:45.495Z,12.00
2018-01-27T14:41:13.091Z,10.30
2018-01-27T14:43:40.569Z,10.47
2018-01-27T14:46:08.831Z,11.10
2018-01-27T14:48:36.344Z,10.53
2018-01-27T14:51:03.831Z,10.13
2018-01-27T14:53:31.322Z,11.43
2018-01-27T14:56:00.408Z,9.30
2018-01-27T14:58:28.642Z,10.13
2018-01-27T15:00:56.169Z,10.90
2018-01-27T15:03:23.644Z,10.30
2018-01-27T15:05:52.123Z,11.90
2018-01-27T15:08:19.658Z,9.40
2018-01-27T15:10:47.912Z,10.67
2018-01-27T15:13:15.391Z,10.03
2018-01-27T15:15:43.634Z,10.27
2018-01-27T15:18:11.111Z,10.20
2018-01-27T15:20:39.467Z,9.30
2018-01-27T15:23:07.822Z,10.67
2018-01-27T15:25:35.321Z,8.97
2018-01-27T15:28:02.796Z,10.40
2018-01-27T15:30:30.388Z,10.23
2018-01-27T15:32:57.888Z,10.60
2018-01-27T15:35:26.174Z,10.20
2018-01-27T15:37:53.665Z,8.43
2018-01-27T15:40:21.132Z,10.13
2018-01-27T15:42:48.741Z,10.33
2018-01-27T15:45:17.192Z,11.40
2018-01-27T15:47:44.692Z,10.20
2018-01-27T15:50:12.943Z,10.80
2018-01-27T15:52:40.409Z,9.90
2018-01-27T15:55:07.884Z,9.97
2018-01-27T15:57:37.118Z,10.57
2018-01-27T16:00:04.604Z,10.50
2018-01-27T16:02:32.081Z,9.50
2018-01-27T16:04:59.562Z,10.67
2018-01-27T16:07:27.037Z,10.07
2018-01-27T16:09:54.508Z,9.63
2018-01-27T16:12:22.901Z,9.23
2018-01-27T16:14:50.450Z,8.70
2018-01-27T16:17:18.657Z,9.40
2018-01-27T16:19:46.129Z,8.83
2018-01-27T16:22:14.361Z,8.67
2018-01-27T16:24:41.971Z,7.57
2018-01-27T16:27:10.382Z,8.67
2018-01-27T16:29:37.869Z,8.13
2018-01-27T16:32:05.344Z,7.73
2018-01-27T16:34:32.833Z,7.60
2018-01-27T16:37:00.430Z,6.97
2018-01-27T16:39:27.916Z,6.80
2018-01-27T16:41:55.411Z,7.10
2018-01-27T16:44:22.885Z,6.87
2018-01-27T16:46:50.358Z,6.80
2018-01-27T16:49:17.877Z,5.70
2018-01-27T16:51:45.446Z,6.93
2018-01-27T16:54:12.971Z,6.07
2018-01-27T16:56:40.429Z,5.30
2018-01-27T16:59:08.033Z,5.60
2018-01-27T17:01:35.609Z,6.07
2018-01-27T17:04:03.107Z,6.63
2018-01-27T17:06:31.583Z,6.83
2018-01-27T17:08:59.074Z,6.07
2018-01-27T17:11:27.526Z,6.37
2018-01-27T17:13:55.749Z,6.30
2018-01-27T17:16:23.237Z,6.80
2018-01-27T17:18:50.756Z,7.70
2018-01-27T17:21:19.021Z,6.97
2018-01-27T17:23:46.526Z,6.77
2018-01-27T17:26:14.093Z,7.70
2018-01-27T17:28:41.620Z,6.83
2018-01-27T17:31:09.621Z,6.37
2018-01-27T17:33:37.194Z,6.87
2018-01-27T17:36:05.460Z,7.30
2018-01-27T17:38:33.072Z,6.57
2018-01-27T17:41:00.580Z,8.33
2018-01-27T17:43:28.074Z,6.93
2018-01-27T17:45:55.692Z,7.43
2018-01-27T17:48:23.157Z,7.37
2018-01-27T17:50:51.430Z,7.40
2018-01-27T17:53:18.945Z,8.03
2018-01-27T17:55:46.974Z,7.23
2018-01-27T17:58:16.258Z,7.40
2018-01-27T18:00:43.876Z,7.70
2018-01-27T18:03:11.384Z,8.10
2018-01-27T18:05:39.738Z,7.60
2018-01-27T18:08:07.294Z,6.97
2018-01-27T18:10:35.588Z,7.27
2018-01-27T18:13:03.313Z,7.80
2018-01-27T18:15:30.789Z,7.57
2018-01-27T18:17:59.297Z,8.00
2018-01-27T18:20:27.531Z,7.67
2018-01-27T18:22:55.014Z,8.17
2018-01-27T18:25:22.617Z,8.13
2018-01-27T18:27:50.892Z,7.30
2018-01-27T18:30:19.245Z,7.90
2018-01-27T18:32:47.514Z,6.50
2018-01-27T18:35:15.118Z,7.73
2018-01-27T18:37:42.596Z,6.93
2018-01-27T18:40:10.088Z,6.60
2018-01-27T18:42:37.560Z,7.20
2018-01-27T18:45:06.848Z,7.87
2018-01-27T18:47:34.316Z,7.50
2018-01-27T18:50:02.573Z,6.70
2018-01-27T18:52:30.061Z,7.47
2018-01-27T18:54:58.309Z,6.60
2018-01-27T18:57:25.786Z,7.20
2018-01-27T18:59:55.196Z,6.50
2018-01-27T19:02:23.429Z,6.80
2018-01-27T19:04:50.900Z,6.50
2018-01-27T19:07:19.412Z,6.47
2018-01-27T19:09:47.825Z,6.60
2018-01-27T19:12:15.406Z,6.13
2018-01-27T19:14:42.886Z,6.70
2018-01-27T19:17:11.855Z,7.00
2018-01-27T19:19:39.318Z,6.20
2018-01-27T19:22:06.795Z,6.13
2018-01-27T19:24:35.039Z,6.43
2018-01-27T19:27:02.649Z,6.40
2018-01-27T19:29:30.898Z,7.30
2018-01-27T19:31:59.361Z,5.90
2018-01-27T19:34:26.825Z,7.10
2018-01-27T19:36:54.347Z,5.77
2018-01-27T19:39:22.248Z,6.07
2018-01-27T19:41:49.728Z,6.87
2018-01-27T19:44:19.005Z,5.97
2018-01-27T19:46:46.622Z,6.33
2018-01-27T19:49:14.098Z,4.97
2018-01-27T19:51:41.716Z,6.57
2018-01-27T19:54:10.180Z,8.33
2018-01-27T19:56:38.446Z,6.63
2018-01-27T19:59:06.029Z,6.77
2018-01-27T20:01:34.253Z,6.90
2018-01-27T20:04:02.660Z,5.97
2018-01-27T20:06:30.126Z,6.70
2018-01-27T20:08:58.394Z,6.33
2018-01-27T20:11:25.860Z,6.30
2018-01-27T20:13:54.085Z,6.03
2018-01-27T20:16:21.585Z,6.53
2018-01-27T20:18:49.053Z,6.60
2018-01-27T20:21:17.318Z,6.27
2018-01-27T20:23:45.570Z,6.20
2018-01-27T20:26:13.058Z,6.20
2018-01-27T20:28:42.149Z,6.60
2018-01-27T20:31:09.619Z,6.10
2018-01-27T20:33:37.853Z,5.50
2018-01-27T20:36:05.354Z,6.10
2018-01-27T20:38:33.638Z,7.00
2018-01-27T20:41:01.190Z,6.53
2018-01-27T20:43:28.638Z,6.37
2018-01-27T20:45:57.734Z,7.03
2018-01-27T20:48:26.012Z,6.40
2018-01-27T20:50:54.270Z,6.70
2018-01-27T20:53:21.889Z,6.90
2018-01-27T20:55:49.522Z,6.77
2018-01-27T20:58:17.830Z,6.70
2018-01-27T21:00:45.299Z,6.17
2018-01-27T21:03:13.724Z,7.30
2018-01-27T21:05:42.645Z,6.50
2018-01-27T21:08:10.120Z,6.43
2018-01-27T21:10:37.654Z,7.33
2018-01-27T21:13:05.134Z,6.50
2018-01-27T21:15:32.598Z,6.50
2018-01-27T21:18:00.671Z,7.43
2018-01-27T21:20:28.146Z,6.40
2018-01-27T21:22:55.633Z,7.03
2018-01-27T21:25:23.922Z,6.43
2018-01-27T21:27:51.749Z,7.20
2018-01-27T21:30:19.225Z,6.60
2018-01-27T21:32:47.605Z,6.63
2018-01-27T21:35:15.865Z,6.73
2018-01-27T21:37:44.155Z,7.10
2018-01-27T21:40:12.557Z,6.70
2018-01-27T21:42:40.050Z,6.67
2018-01-27T21:45:07.532Z,6.70
2018-01-27T21:47:35.032Z,6.83
2018-01-27T21:50:04.463Z,7.17
2018-01-27T21:52:31.952Z,7.07
2018-01-27T21:55:00.288Z,6.90
2018-01-27T21:57:28.072Z,6.77
2018-01-27T21:59:56.684Z,7.37
2018-01-27T22:02:25.478Z,6.13
2018-01-27T22:04:53.010Z,6.50
2018-01-27T22:07:20.594Z,7.47
2018-01-27T22:09:48.868Z,6.77
2018-01-27T22:12:17.112Z,6.47
2018-01-27T22:14:44.686Z,8.23
2018-01-27T22:17:12.301Z,6.30
2018-01-27T22:19:39.811Z,7.00
2018-01-27T22:22:07.383Z,6.57
2018-01-27T22:24:39.859Z,6.50
2018-01-27T22:27:08.499Z,5.50
2018-01-27T22:29:36.261Z,5.20
2018-01-27T22:32:03.761Z,5.10
2018-01-27T22:34:32.007Z,4.83
2018-01-27T22:37:00.838Z,3.93
2018-01-27T22:39:28.373Z,3.60
2018-01-27T22:41:55.838Z,3.20
2018-01-27T22:44:23.412Z,3.17
2018-01-27T22:46:50.935Z,3.07
2018-01-27T22:49:18.407Z,2.33
2018-01-27T22:51:46.734Z,3.20
2018-01-27T22:54:14.199Z,2.57
2018-01-27T22:56:42.581Z,2.63
2018-01-27T22:59:10.506Z,2.57
2018-01-27T23:01:38.001Z,2.90
2018-01-27T23:04:05.901Z,2.50
2018-01-27T23:06:35.204Z,2.53
2018-01-27T23:09:03.043Z,2.77
2018-01-27T23:11:30.550Z,3.10
2018-01-27T23:13:58.909Z,3.10
2018-01-27T23:16:27.464Z,2.93
2018-01-27T23:18:55.717Z,2.20
2018-01-27T23:21:23.457Z,2.63
2018-01-27T23:23:52.142Z,2.90
2018-01-27T23:26:19.652Z,2.80
2018-01-27T23:28:47.130Z,3.13
2018-01-27T23:31:16.090Z,2.53
2018-01-27T23:33:43.585Z,3.10
2018-01-27T23:36:12.974Z,2.90
2018-01-27T23:38:40.512Z,2.77
2018-01-27T23:41:08.076Z,2.93
2018-01-27T23:43:35.674Z,3.00
2018-01-27T23:46:03.245Z,3.07
2018-01-27T23:48:31.532Z,2.73
2018-01-27T23:50:59.271Z,2.33
2018-01-27T23:53:27.076Z,3.10
2018-01-27T23:55:54.568Z,3.20
2018-01-27T23:58:23.017Z,3.10
